Latest Weather Observations for Moss Vale

IDN60801

Issued at 2:32 pm EST Thursday 28 May 2020 (issued every 10 minutes, with the page automatically refreshed every 10 minutes)

About weather observations | Map of weather stations | Latest weather observations for NSW | Other Formats
Station Details ID: 068239 Name: MOSS VALE AWS Lat: -34.53 Lon: 150.42 Height: 678.4 m
Data from the previous 72 hours. | See also: Recent months at Moss Vale
Date/Time
EST
Temp
°C
App
Temp
°C
Dew
Point
°C
Rel
Hum
%
Delta-T
°C
Wind Press
QNH
hPa
Press
MSL
hPa
Rain since
9am
mm
Dir  Spd
km/h
Gust
km/h
Spd
kts
Gust
kts
28/02:30pm 14.9 10.7 8.2 64 3.5 W 20 24 11 13 1020.8 1020.7 0.0
28/02:00pm 14.4 10.3 7.7 64 3.4 W 19 28 10 15 1020.8 1020.7 0.0
28/01:30pm 14.6 8.7 7.6 63 3.6 WSW 28 35 15 19 1020.7 1020.5 0.0
28/01:00pm 15.2 11.0 8.2 63 3.6 W 20 30 11 16 1021.1 1020.9 0.0
28/12:30pm 14.9 10.6 9.3 69 3.0 WSW 22 30 12 16 1021.3 1021.1 0.0
28/12:00pm 14.2 9.5 9.2 72 2.6 WSW 24 30 13 16 1021.5 1021.3 0.0
28/11:30am 14.4 10.6 9.8 74 2.5 W 20 28 11 15 1021.8 1021.6 0.0
28/11:00am 13.4 9.1 9.5 77 2.1 W 22 30 12 16 1022.1 1022.0 0.0
28/10:30am 13.1 9.2 9.5 79 1.9 WSW 20 32 11 17 1022.3 1022.2 0.0
28/10:00am 11.8 7.6 8.3 79 1.8 WSW 20 30 11 16 1022.4 1022.3 0.0
28/09:30am 10.8 8.0 8.6 86 1.1 W 13 19 7 10 1022.6 1022.4 0.0
28/09:00am 9.5 6.2 7.9 90 0.8 W 15 20 8 11 1022.3 1022.2 0.2
28/08:30am 8.2 5.6 7.8 97 0.2 W 11 13 6 7 1022.3 1022.2 0.2
28/08:00am 7.1 5.0 6.7 97 0.2 W 7 11 4 6 1022.0 1021.9 0.2
28/07:30am 6.4 3.8 6.0 97 0.2 WNW 9 11 5 6 1021.8 1021.6 0.2
28/07:00am 5.8 3.1 5.4 97 0.2 W 9 11 5 6 1021.6 1021.4 0.2
28/06:38am 5.8 3.4 5.4 97 0.2 WNW 7 9 4 5 1021.3 1021.1 0.2
28/06:30am 5.8 3.4 5.4 97 0.2 WNW 7 9 4 5 1021.2 1021.0 0.2
28/06:03am 5.2 2.7 4.6 96 0.3 WNW 7 11 4 6 1020.7 1020.5 0.2
28/06:00am 5.9 3.2 5.5 97 0.2 WNW 9 11 5 6 1020.7 1020.5 0.2
28/05:46am 6.1 3.8 5.7 97 0.2 WNW 7 9 4 5 1020.7 1020.5 0.2
28/05:30am 6.1 4.0 5.7 97 0.2 W 6 7 3 4 1020.5 1020.3 0.2
28/05:26am 6.1 4.0 5.7 97 0.2 W 6 7 3 4 1020.5 1020.3 0.2
28/05:17am 6.2 4.1 5.8 97 0.2 W 6 9 3 5 1020.5 1020.3 0.2
28/05:00am 6.4 4.2 6.0 97 0.2 W 7 9 4 5 1020.5 1020.3 0.2
28/04:58am 6.4 4.2 6.0 97 0.2 W 7 9 4 5 1020.5 1020.3 0.2
28/04:30am 6.3 4.2 5.9 97 0.2 WSW 6 7 3 4 1020.5 1020.3 0.2
28/04:29am 6.3 4.2 5.9 97 0.2 WSW 6 9 3 5 1020.5 1020.3 0.2
28/04:00am 5.5 3.0 4.9 96 0.3 WNW 7 9 4 5 1020.6 1020.4 0.2
28/03:30am 5.8 3.4 5.4 97 0.2 WSW 7 9 4 5 1020.6 1020.4 0.2
28/03:25am 5.6 3.2 5.2 97 0.2 WSW 7 9 4 5 1020.6 1020.4 0.2
28/03:00am 5.7 3.3 5.3 97 0.2 WNW 7 11 4 6 1020.6 1020.4 0.2
28/02:54am 6.0 3.3 5.6 97 0.2 WNW 9 11 5 6 1020.6 1020.4 0.2
28/02:30am 4.9 2.5 4.3 96 0.3 NNE 6 7 3 4 1020.6 1020.4 0.2
28/02:00am 4.9 3.6 4.3 96 0.3 CALM 0 0 0 0 1020.5 1020.3 0.2
28/01:46am 4.5 2.4 3.9 96 0.3 NNE 4 6 2 3 1020.3 1020.1 0.2
28/01:30am 4.6 2.1 4.0 96 0.3 NNE 6 7 3 4 1020.3 1020.1 0.2
28/01:00am 4.6 2.1 4.0 96 0.3 NNE 6 6 3 3 1020.5 1020.3 0.2
28/12:33am 5.2 4.0 4.6 96 0.3 CALM 0 0 0 0 1020.7 1020.5 0.2
28/12:30am 5.1 3.9 4.5 96 0.3 CALM 0 0 0 0 1020.7 1020.5 0.2
28/12:06am 4.7 3.4 4.1 96 0.3 CALM 0 0 0 0 1020.9 1020.8 0.2
28/12:00am 4.8 3.5 4.2 96 0.3 CALM 0 0 0 0 1020.9 1020.8 0.2
 
Date/Time
EST
Temp
°C
App
Temp
°C
Dew
Point
°C
Rel
Hum
%
Delta-T
°C
Wind Press
QNH
hPa
Press
MSL
hPa
Rain since
9am
mm
Dir  Spd
km/h
Gust
km/h
Spd
kts
Gust
kts
27/11:30pm 5.9 3.7 5.2 95 0.3 NNE 6 7 3 4 1020.8 1020.7 0.0
27/11:00pm 6.2 4.0 5.5 95 0.3 N 6 7 3 4 1021.1 1020.9 0.0
27/10:41pm 6.6 5.7 5.9 95 0.3 CALM 0 0 0 0 1021.1 1020.9 0.0
27/10:30pm 6.8 5.9 6.1 95 0.3 CALM 0 0 0 0 1021.1 1020.9 0.0
27/10:00pm 7.9 6.1 7.3 96 0.3 W 6 7 3 4 1021.5 1021.3 0.0
27/09:30pm 7.8 6.7 6.9 94 0.4 NE 2 7 1 4 1021.7 1021.5 0.0
27/09:00pm 9.1 8.7 8.3 95 0.4 CALM 0 0 0 0 1021.5 1021.3 0.0
27/08:30pm 9.2 8.8 8.3 94 0.5 CALM 0 6 0 3 1021.6 1021.4 0.0
27/08:00pm 9.5 7.9 8.6 94 0.5 NE 7 7 4 4 1021.5 1021.3 0.0
27/07:56pm 9.4 7.7 8.5 94 0.5 NE 7 7 4 4 1021.5 1021.3 0.0
27/07:30pm 9.8 8.2 8.7 93 0.6 NE 7 7 4 4 1021.4 1021.2 0.0
27/07:00pm 10.0 8.4 8.8 92 0.6 NE 7 9 4 5 1021.3 1021.1 0.0
27/06:30pm 10.3 10.1 8.9 91 0.7 CALM 0 0 0 0 1021.2 1021.0 0.0
27/06:00pm 10.8 9.5 9.1 89 0.9 NE 6 7 3 4 1021.1 1020.9 0.0
27/05:30pm 11.1 9.7 8.7 85 1.2 NNE 6 9 3 5 1020.8 1020.7 0.0
27/05:00pm 11.4 9.7 8.4 82 1.5 WSW 7 9 4 5 1020.7 1020.5 0.0
27/04:30pm 12.4 11.7 8.5 77 2.0 WNW 2 6 1 3 1020.5 1020.3 0.0
27/04:00pm 13.0 11.5 8.3 73 2.4 WNW 6 7 3 4 1020.5 1020.3 0.0
27/03:30pm 13.2 11.5 8.5 73 2.4 WNW 7 9 4 5 1020.5 1020.3 0.0
27/03:00pm 14.7 13.9 9.5 71 2.8 NNW 4 7 2 4 1020.4 1020.2 0.0
27/02:30pm 13.9 13.0 9.3 74 2.4 NW 4 7 2 4 1020.6 1020.4 0.0
27/02:00pm 13.8 12.4 9.6 76 2.2 S 7 9 4 5 1020.8 1020.7 0.0
27/01:30pm 13.4 11.1 8.9 74 2.4 W 11 13 6 7 1021.2 1021.0 0.0
27/01:00pm 13.2 10.8 8.5 73 2.4 WNW 11 13 6 7 1021.5 1021.3 0.0
27/12:30pm 12.6 10.4 9.2 80 1.8 WNW 11 15 6 8 1021.9 1021.7 0.0
27/12:22pm 11.7 9.2 8.4 80 1.7 W 11 15 6 8 1021.9 1021.7 0.0
27/12:00pm 11.9 9.6 9.1 83 1.5 WSW 11 15 6 8 1022.1 1022.0 0.0
27/11:45am 11.7 9.8 9.1 84 1.4 WSW 9 13 5 7 1022.3 1022.2 0.0
27/11:43am 11.6 9.7 9.0 84 1.3 W 9 13 5 7 1022.3 1022.2 0.0
27/11:30am 11.0 9.0 8.8 86 1.1 W 9 13 5 7 1022.6 1022.4 0.0
27/11:29am 11.0 9.1 8.9 87 1.1 W 9 13 5 7 1022.6 1022.4 0.0
27/11:19am 11.1 9.7 9.5 90 0.8 NW 7 11 4 6 1022.7 1022.5 0.0
27/11:00am 10.8 9.5 9.9 94 0.5 W 7 11 4 6 1023.0 1022.8 0.0
27/10:30am 10.4 9.3 9.8 96 0.3 SSE 6 9 3 5 1023.3 1023.2 0.0
27/10:00am 9.6 8.1 9.1 97 0.3 SSW 7 9 4 5 1023.5 1023.4 0.0
27/09:30am 9.7 8.2 9.2 97 0.3 SE 7 11 4 6 1023.6 1023.5 0.0
27/09:19am 9.4 7.5 8.9 97 0.3 S 9 11 5 6 1023.5 1023.4 0.0
27/09:00am 9.2 7.8 8.7 97 0.3 SSW 6 9 3 5 1023.5 1023.4 3.2
27/08:30am 9.0 7.9 8.6 97 0.2 SSW 4 9 2 5 1023.6 1023.5 3.2
27/08:00am 8.6 7.0 8.2 97 0.2 SSW 6 9 3 5 1023.7 1023.6 3.2
27/07:30am 8.3 7.8 7.9 97 0.2 CALM 0 0 0 0 1023.4 1023.3 3.2
27/07:00am 8.2 6.4 7.8 97 0.2 WSW 7 9 4 5 1023.3 1023.2 3.2
27/06:30am 8.1 7.5 7.5 96 0.3 CALM 0 0 0 0 1023.2 1023.0 3.2
27/06:00am 8.2 7.6 7.6 96 0.3 CALM 0 0 0 0 1023.0 1022.8 3.2
27/05:30am 8.4 6.8 7.8 96 0.3 WSW 6 9 3 5 1023.0 1022.8 3.2
27/05:25am 8.5 6.9 7.9 96 0.3 WSW 6 9 3 5 1022.9 1022.7 3.2
27/05:00am 8.7 6.9 8.1 96 0.3 WSW 7 9 4 5 1022.9 1022.7 3.2
27/04:59am 8.7 6.9 8.1 96 0.3 WSW 7 9 4 5 1022.9 1022.7 3.2
27/04:45am 8.7 7.9 8.1 96 0.3 WSW 2 7 1 4 1023.0 1022.8 3.2
27/04:36am 8.6 6.8 8.0 96 0.3 WSW 7 9 4 5 1022.9 1022.7 3.2
27/04:32am 8.6 6.8 8.0 96 0.3 WSW 7 9 4 5 1022.9 1022.7 3.2
27/04:30am 8.6 6.8 8.0 96 0.3 WSW 7 9 4 5 1022.9 1022.7 3.2
27/04:10am 8.8 7.2 8.2 96 0.3 S 6 9 3 5 1023.2 1023.0 3.2
27/04:00am 8.9 7.8 8.3 96 0.3 SSW 4 9 2 5 1023.1 1022.9 3.2
27/03:30am 8.9 8.5 8.3 96 0.3 CALM 0 0 0 0 1023.1 1022.9 3.2
27/03:00am 8.9 8.5 8.3 96 0.3 CALM 0 0 0 0 1023.5 1023.4 3.2
27/02:57am 8.9 8.5 8.3 96 0.3 CALM 0 0 0 0 1023.5 1023.4 3.2
27/02:55am 8.9 8.5 8.3 96 0.3 CALM 0 6 0 3 1023.5 1023.4 3.0
27/02:43am 8.9 7.8 8.3 96 0.3 SW 4 7 2 4 1023.8 1023.7 3.0
27/02:40am 8.9 7.4 8.3 96 0.3 SW 6 7 3 4 1023.8 1023.7 3.0
27/02:30am 8.8 7.1 8.2 96 0.3 SW 7 7 4 4 1023.9 1023.8 3.0
27/02:23am 8.9 7.2 8.3 96 0.3 SW 7 11 4 6 1024.2 1024.0 3.0
27/02:00am 8.7 8.3 8.1 96 0.3 CALM 0 0 0 0 1024.0 1023.9 3.0
27/01:52am 8.7 7.5 8.1 96 0.3 SSW 4 7 2 4 1023.9 1023.8 2.8
27/01:50am 8.7 7.1 8.1 96 0.3 SSW 6 7 3 4 1023.9 1023.8 2.8
27/01:30am 8.6 7.8 8.0 96 0.3 SSW 2 6 1 3 1023.8 1023.7 2.8
27/01:00am 8.3 6.1 7.7 96 0.3 SSW 9 13 5 7 1024.0 1023.9 2.8
27/12:30am 8.6 6.4 8.0 96 0.3 S 9 11 5 6 1024.3 1024.1 2.8
27/12:07am 8.5 6.9 7.9 96 0.3 SSW 6 7 3 4 1024.3 1024.1 2.8
27/12:00am 8.6 7.0 8.0 96 0.3 SSW 6 9 3 5 1024.4 1024.2 2.8
 
Date/Time
EST
Temp
°C
App
Temp
°C
Dew
Point
°C
Rel
Hum
%
Delta-T
°C
Wind Press
QNH
hPa
Press
MSL
hPa
Rain since
9am
mm
Dir  Spd
km/h
Gust
km/h
Spd
kts
Gust
kts
26/11:42pm 8.4 6.2 7.8 96 0.3 SSW 9 9 5 5 1024.6 1024.5 2.8
26/11:30pm 8.6 6.8 8.0 96 0.3 S 7 9 4 5 1024.6 1024.5 2.8
26/11:21pm 8.9 7.2 8.3 96 0.3 S 7 9 4 5 1024.7 1024.6 2.8
26/11:20pm 8.9 7.2 8.3 96 0.3 S 7 9 4 5 1024.7 1024.6 2.8
26/11:02pm 9.1 7.6 8.5 96 0.3 S 6 7 3 4 1024.8 1024.7 2.8
26/11:00pm 9.1 7.6 8.5 96 0.3 S 6 7 3 4 1024.8 1024.7 2.8
26/10:51pm 9.2 7.6 8.6 96 0.3 S 7 9 4 5 1024.8 1024.7 2.8
26/10:36pm 9.2 7.2 8.6 96 0.3 SSW 9 11 5 6 1024.7 1024.6 2.8
26/10:30pm 9.2 7.2 8.6 96 0.3 SSW 9 13 5 7 1024.6 1024.5 2.8
26/10:17pm 9.2 7.2 8.6 96 0.3 S 9 13 5 7 1024.6 1024.5 2.8
26/10:06pm 9.1 6.7 8.5 96 0.3 S 11 17 6 9 1024.6 1024.5 2.6
26/10:00pm 9.2 6.4 8.6 96 0.3 S 13 17 7 9 1024.6 1024.5 2.6
26/09:30pm 9.0 6.1 8.2 95 0.4 S 13 17 7 9 1024.4 1024.2 2.6
26/09:05pm 9.4 6.6 8.6 95 0.4 S 13 17 7 9 1024.5 1024.3 2.6
26/09:00pm 9.4 7.0 8.6 95 0.4 S 11 17 6 9 1024.6 1024.5 2.6
26/08:55pm 9.5 7.1 8.7 95 0.4 S 11 15 6 8 1024.6 1024.5 2.6
26/08:30pm 9.7 7.0 8.9 95 0.4 SSE 13 15 7 8 1024.8 1024.7 2.6
26/08:00pm 9.6 7.2 8.7 94 0.5 S 11 15 6 8 1024.5 1024.3 2.4
26/07:54pm 9.5 7.1 8.6 94 0.5 S 11 13 6 7 1024.6 1024.5 2.2
26/07:31pm 9.9 7.2 9.0 94 0.5 S 13 20 7 11 1024.5 1024.3 2.2
26/07:30pm 9.9 7.2 9.0 94 0.5 S 13 20 7 11 1024.5 1024.3 2.2
26/07:26pm 9.9 7.2 9.0 94 0.5 SSW 13 20 7 11 1024.5 1024.3 2.2
26/07:00pm 10.0 6.9 8.9 93 0.6 S 15 20 8 11 1024.4 1024.2 2.0
26/06:52pm 10.0 6.9 8.9 93 0.6 SSE 15 20 8 11 1024.4 1024.2 2.0
26/06:37pm 10.0 7.7 9.1 94 0.5 S 11 15 6 8 1024.2 1024.0 2.0
26/06:30pm 10.0 7.7 8.9 93 0.6 S 11 15 6 8 1024.0 1023.9 2.0
26/06:19pm 10.1 8.6 9.0 93 0.6 ESE 7 11 4 6 1024.2 1024.0 2.0
26/06:15pm 10.0 8.1 8.9 93 0.6 SE 9 11 5 6 1024.2 1024.0 2.0
26/06:00pm 10.1 8.2 9.0 93 0.6 SE 9 13 5 7 1024.0 1023.9 2.0
26/05:49pm 10.1 7.8 8.9 92 0.6 SSE 11 15 6 8 1023.9 1023.8 1.8
26/05:41pm 10.0 7.6 8.8 92 0.6 SSE 11 17 6 9 1023.8 1023.7 1.6
26/05:30pm 10.1 8.2 8.9 92 0.6 ESE 9 15 5 8 1023.8 1023.7 1.6
26/05:25pm 10.0 8.4 8.8 92 0.6 SSE 7 11 4 6 1023.8 1023.7 1.6
26/05:09pm 10.0 7.6 8.8 92 0.6 SSE 11 15 6 8 1023.7 1023.6 1.6
26/05:00pm 10.1 7.0 8.9 92 0.6 SSE 15 24 8 13 1023.6 1023.5 1.6
26/04:49pm 10.3 7.2 8.9 91 0.7 SSE 15 20 8 11 1023.6 1023.5 1.6
26/04:31pm 10.6 7.5 8.9 89 0.9 SSE 15 26 8 14 1023.5 1023.4 1.6
26/04:30pm 10.6 7.5 8.9 89 0.9 SSE 15 26 8 14 1023.5 1023.4 1.6
26/04:03pm 10.6 7.2 9.2 91 0.7 SSE 17 24 9 13 1023.4 1023.3 1.6
26/04:00pm 10.6 7.2 9.2 91 0.7 SE 17 24 9 13 1023.4 1023.3 1.6
26/03:34pm 10.5 5.8 9.1 91 0.7 SSE 24 33 13 18 1023.1 1022.9 1.6
26/03:31pm 10.5 6.2 9.3 92 0.6 SSE 22 33 12 18 1023.1 1022.9 1.6
26/03:30pm 10.6 6.3 9.4 92 0.6 SSE 22 33 12 18 1023.1 1022.9 1.6
26/03:01pm 10.7 7.0 9.3 91 0.7 SSE 19 28 10 15 1022.9 1022.7 1.2
26/03:00pm 10.7 6.9 9.1 90 0.8 SSE 19 28 10 15 1022.9 1022.7 1.2
26/02:32pm 10.8 6.5 9.4 91 0.7 SSE 22 35 12 19 1023.0 1022.8 1.2
26/02:30pm 10.8 6.1 9.4 91 0.7 SSE 24 35 13 19 1022.9 1022.7 1.2
26/02:29pm 10.8 6.1 9.4 91 0.7 SSE 24 35 13 19 1022.9 1022.7 1.2
26/02:15pm 10.6 6.0 9.5 93 0.6 SSE 24 33 13 18 1022.8 1022.6 1.2
26/02:00pm 10.8 5.8 9.6 92 0.6 SE 26 35 14 19 1022.7 1022.5 1.2
26/01:59pm 10.7 5.7 9.5 92 0.6 SE 26 35 14 19 1022.7 1022.5 1.2
26/01:34pm 11.0 6.8 9.9 93 0.6 SSE 22 30 12 16 1023.0 1022.8 1.2
26/01:30pm 10.9 6.7 9.8 93 0.6 SSE 22 30 12 16 1023.0 1022.8 1.2
26/01:00pm 11.0 7.3 10.1 94 0.5 S 20 30 11 16 1023.4 1023.3 1.2
26/12:30pm 10.9 6.4 10.0 94 0.5 S 24 35 13 19 1023.6 1023.5 1.0
26/12:00pm 11.1 7.1 10.3 95 0.4 SSE 22 32 12 17 1023.8 1023.7 1.0
26/11:46am 11.3 7.7 10.5 95 0.4 SSE 20 32 11 17 1024.2 1024.0 1.0
26/11:41am 11.6 8.3 11.0 96 0.3 SSE 19 28 10 15 1024.2 1024.0 1.0
26/11:30am 11.2 7.6 10.6 96 0.3 SSE 20 30 11 16 1024.4 1024.2 1.0
26/11:00am 11.3 8.3 10.7 96 0.3 S 17 26 9 14 1024.6 1024.5 0.6
26/10:30am 11.1 8.1 10.6 97 0.3 S 17 24 9 13 1024.6 1024.5 0.6
26/10:00am 10.8 8.5 10.3 97 0.3 S 13 19 7 10 1024.4 1024.2 0.4
26/09:30am 10.5 7.3 10.0 97 0.3 SSE 17 24 9 13 1024.4 1024.2 0.2
26/09:00am 10.2 7.3 9.7 97 0.3 S 15 24 8 13 1024.3 1024.1 7.0
26/08:30am 10.0 7.8 9.5 97 0.3 S 11 15 6 8 1023.9 1023.8 7.0
26/08:00am 9.7 7.1 9.2 97 0.3 S 13 19 7 10 1023.6 1023.5 6.6
26/07:30am 9.4 7.1 8.9 97 0.3 S 11 15 6 8 1023.4 1023.3 6.6
26/07:00am 9.1 7.1 8.6 97 0.3 S 9 13 5 7 1023.3 1023.2 6.2
26/06:30am 9.0 6.2 8.6 97 0.2 S 13 20 7 11 1023.1 1022.9 6.2
26/06:00am 8.8 6.3 8.4 97 0.2 S 11 17 6 9 1022.9 1022.7 5.8
26/05:30am 8.7 5.1 8.3 97 0.2 SSW 17 20 9 11 1022.8 1022.6 5.6
26/05:00am 8.6 4.6 8.2 97 0.2 SSW 19 28 10 15 1022.6 1022.4 5.4
26/04:30am 8.5 4.3 8.1 97 0.2 SSW 20 28 11 15 1022.7 1022.5 5.0
26/04:00am 8.4 4.1 8.0 97 0.2 SSW 20 30 11 16 1022.4 1022.3 4.8
26/03:30am 8.5 3.8 7.9 96 0.3 SSW 22 30 12 16 1022.6 1022.4 4.6
26/03:00am 8.5 3.8 7.9 96 0.3 SSW 22 30 12 16 1022.4 1022.3 4.4
26/02:30am 8.5 4.8 7.9 96 0.3 S 17 28 9 15 1022.8 1022.6 4.2
26/02:00am 8.4 4.1 7.8 96 0.3 S 20 28 11 15 1022.7 1022.5 4.0
26/01:30am 8.3 4.2 7.7 96 0.3 S 19 28 10 15 1022.8 1022.6 3.8
26/01:00am 8.3 4.5 7.7 96 0.3 S 17 24 9 13 1022.8 1022.6 3.6
26/12:30am 8.3 4.0 7.7 96 0.3 S 20 32 11 17 1022.8 1022.6 3.6
26/12:00am 8.2 4.0 7.6 96 0.3 S 19 26 10 14 1022.7 1022.5 3.2
 
Date/Time
EST
Temp
°C
App
Temp
°C
Dew
Point
°C
Rel
Hum
%
Delta-T
°C
Wind Press
QNH
hPa
Press
MSL
hPa
Rain since
9am
mm
Dir  Spd
km/h
Gust
km/h
Spd
kts
Gust
kts
25/11:30pm 8.3 4.0 7.7 96 0.3 S 20 32 11 17 1022.7 1022.5 3.0
25/11:00pm 8.4 4.1 7.8 96 0.3 SSW 20 28 11 15 1022.7 1022.5 2.6
25/10:30pm 8.6 3.2 8.0 96 0.3 SSW 26 35 14 19 1022.4 1022.3 2.0
25/10:08pm 8.7 2.2 8.1 96 0.3 S 32 43 17 23 1022.2 1022.1 1.8
25/10:00pm 8.7 2.6 8.1 96 0.3 S 30 43 16 23 1022.3 1022.2 1.8
25/09:30pm 8.7 2.1 7.9 95 0.4 S 32 52 17 28 1022.2 1022.1 1.6
25/09:00pm 8.8 3.1 8.2 96 0.3 S 28 50 15 27 1022.0 1021.9 1.6
25/08:30pm 8.9 3.2 8.3 96 0.3 S 28 46 15 25 1021.8 1021.6 1.4
25/08:00pm 8.8 3.0 8.0 95 0.4 S 28 41 15 22 1021.5 1021.3 1.4
25/07:30pm 8.9 2.4 8.1 95 0.4 SSW 32 41 17 22 1021.1 1020.9 1.2
25/07:00pm 8.9 3.1 8.1 95 0.4 SSW 28 41 15 22 1021.2 1021.0 1.2
25/06:30pm 8.9 2.4 8.1 95 0.4 S 32 44 17 24 1020.9 1020.8 1.0
25/06:00pm 9.0 3.3 8.2 95 0.4 SSW 28 41 15 22 1020.6 1020.4 1.0
25/05:30pm 9.1 3.8 8.3 95 0.4 S 26 43 14 23 1020.4 1020.2 0.6
25/05:00pm 9.1 2.6 8.2 94 0.4 S 32 52 17 28 1019.9 1019.7 0.4
25/04:51pm 9.1 2.6 8.2 94 0.5 S 32 52 17 28 1019.8 1019.6 0.4
25/04:30pm 9.3 2.9 8.4 94 0.5 S 32 46 17 25 1019.6 1019.4 0.4
25/04:00pm 9.5 3.5 8.6 94 0.5 S 30 43 16 23 1019.6 1019.4 0.2
25/03:41pm 9.5 3.8 8.4 93 0.6 SSW 28 50 15 27 1019.7 1019.5 0.2
25/03:30pm 9.5 2.9 8.4 93 0.6 S 33 46 18 25 1019.6 1019.4 0.2
25/03:12pm 9.4 3.7 8.3 93 0.6 SSW 28 46 15 25 1019.5 1019.2 0.0
25/03:00pm 9.4 2.9 8.3 93 0.6 S 32 43 17 23 1019.2 1019.0 0.0

Other formats

Comma delimited format used in spreadsheet applications
http://www.bom.gov.au/fwo/IDN60801/IDN60801.94746.axf

JavaScript Object Notation format (JSON) in row-major order
http://www.bom.gov.au/fwo/IDN60801/IDN60801.94746.json

Data quality

Most of these data are generated automatically and are frequently updated. Quality checks on data are not normally performed. It is possible for incorrect values to appear. Refer to information at About Latest Weather Observations and please check the disclaimer before using these data.